KGLS/GLS METAR and TAF weather

Enter ICAO airport designator
Station Type Date Time Source
KGLS METAR 2022/06/30 01:52 UTC NOAA

KGLS 300152Z AUTO 12009KT 10SM CLR 29/21 A3005 RMK AO2 SLP174 T02940206


Station Type Date Time Source
KGLS Decoded METAR 2022/06/30 01:52 UTC NOAA

SCHOLES FIELD, TX, United States (KGLS) 29-16N 094-52W 6M
Jun 29, 2022 - 09:52 PM EDT / 2022.06.30 0152 UTC
Wind: from the ESE (120 degrees) at 10 MPH (9 KT):0
Visibility: 10 mile(s):0
Sky conditions: clear
Temperature: 84.9 F (29.4 C)
Dew Point: 69.1 F (20.6 C)
Relative Humidity: 59%
Pressure (altimeter): 30.05 in. Hg (1017 hPa)
ob: KGLS 300152Z AUTO 12009KT 10SM CLR 29/21 A3005 RMK AO2 SLP174 T02940206
cycle: 2

Station Type Date Time Source
KGLS TAF 2022/06/29 18:27 UTC NOAA

TAF KGLS 291720Z 2918/3018 09011KT P6SM FEW020 BKN250
FM291900 11010KT P6SM VCTS FEW025CB SCT050 BKN250
FM292300 13010KT P6SM SCT035 BKN150
FM301000 14010KT P6SM VCTS SCT025CB BKN040 OVC100

Example: see airport list